Time;durP1;ratioP1;P1;durP2;ratioP2;P2;SDS_P1;SDS_P2;PMS_P1;PMS_P2;Temp;Humidity;BMP_temperature;BMP_pressure;BME280_temperature;BME280_humidity;BME280_pressure;Samples;Min_cycle;Max_cycle;Signal;HPM_P1;HPM_P2
2023/07/31 00:00:58;;;;;;;2.70;2.20;;;18.50;99.90;;;;;;2091715;28;20029;-72
2023/07/31 00:01:58;;;;;;;3.03;1.88;;;18.50;99.90;;;;;;2092415;28;20025;-72
2023/07/31 00:02:59;;;;;;;4.65;2.05;;;18.50;99.90;;;;;;2091978;28;20520;-72
2023/07/31 00:03:59;;;;;;;3.05;2.10;;;18.50;99.90;;;;;;2092069;28;20024;-72
2023/07/31 00:05:01;;;;;;;2.72;2.50;;;18.60;99.90;;;;;;2093191;28;20451;-72
2023/07/31 00:06:01;;;;;;;3.38;1.98;;;18.60;99.90;;;;;;2092299;28;20469;-72
2023/07/31 00:07:04;;;;;;;2.75;2.20;;;18.60;99.90;;;;;;2092773;28;20467;-72
2023/07/31 00:08:04;;;;;;;4.32;2.55;;;18.60;99.90;;;;;;2094212;28;20020;-72
2023/07/31 00:09:05;;;;;;;2.95;2.03;;;18.60;99.90;;;;;;2095194;28;20110;-72
2023/07/31 00:10:06;;;;;;;3.03;2.47;;;18.60;99.90;;;;;;2092156;28;20032;-72
2023/07/31 00:11:06;;;;;;;3.35;2.22;;;18.60;99.90;;;;;;2090607;28;20550;-72
2023/07/31 00:12:07;;;;;;;5.75;2.58;;;18.60;99.90;;;;;;2092585;28;20788;-72
2023/07/31 00:13:08;;;;;;;2.53;2.33;;;18.60;99.90;;;;;;2092005;28;20033;-72
2023/07/31 00:14:08;;;;;;;3.00;2.55;;;18.60;99.90;;;;;;2091821;28;20150;-72
2023/07/31 00:15:09;;;;;;;5.15;2.95;;;18.60;99.90;;;;;;2092106;28;20029;-72
2023/07/31 00:16:10;;;;;;;5.30;3.13;;;18.60;99.90;;;;;;2092066;28;20021;-72
2023/07/31 00:17:10;;;;;;;5.93;3.20;;;18.60;99.90;;;;;;2091019;28;20074;-72
2023/07/31 00:18:11;;;;;;;4.25;2.55;;;18.60;99.90;;;;;;2092553;28;20091;-72
2023/07/31 00:19:11;;;;;;;5.00;3.20;;;18.60;99.90;;;;;;2091198;28;20051;-72
2023/07/31 00:20:12;;;;;;;5.28;3.00;;;18.60;99.90;;;;;;2089321;28;20527;-72
2023/07/31 00:21:12;;;;;;;7.60;3.90;;;18.60;99.90;;;;;;2091257;28;20083;-72
2023/07/31 00:22:13;;;;;;;7.32;3.55;;;18.60;99.90;;;;;;2091196;28;20508;-72
2023/07/31 00:23:13;;;;;;;8.10;3.65;;;18.60;99.90;;;;;;2090680;28;20033;-72
2023/07/31 00:24:14;;;;;;;5.65;3.22;;;18.60;99.90;;;;;;2092581;28;20056;-71
2023/07/31 00:25:14;;;;;;;5.47;3.55;;;18.60;99.90;;;;;;2090736;28;20032;-72
2023/07/31 00:26:15;;;;;;;4.82;3.08;;;18.60;99.90;;;;;;2091127;28;20627;-72
2023/07/31 00:27:16;;;;;;;7.00;3.88;;;18.60;99.90;;;;;;2090443;28;20484;-71
2023/07/31 00:28:16;;;;;;;6.07;3.97;;;18.60;99.90;;;;;;2094305;28;20032;-72
2023/07/31 00:29:17;;;;;;;6.65;3.47;;;18.60;99.90;;;;;;2095158;28;20524;-72
2023/07/31 00:30:17;;;;;;;6.60;3.10;;;18.60;99.90;;;;;;2091233;28;20048;-72
2023/07/31 00:31:18;;;;;;;8.88;4.57;;;18.50;99.90;;;;;;2089862;28;20070;-72
2023/07/31 00:32:19;;;;;;;4.97;3.42;;;18.50;99.90;;;;;;2091315;28;20155;-72
2023/07/31 00:33:19;;;;;;;6.50;3.67;;;18.50;99.90;;;;;;2091259;28;20025;-72
2023/07/31 00:34:20;;;;;;;6.13;4.00;;;18.50;99.90;;;;;;2090839;28;20029;-71
2023/07/31 00:35:20;;;;;;;5.38;3.67;;;18.50;99.90;;;;;;2089582;28;20422;-71
2023/07/31 00:36:21;;;;;;;6.50;3.85;;;18.50;99.90;;;;;;2092898;28;20096;-72
2023/07/31 00:37:21;;;;;;;5.85;3.78;;;18.50;99.90;;;;;;2090969;28;20103;-72
2023/07/31 00:38:22;;;;;;;5.70;3.92;;;18.50;99.90;;;;;;2091286;28;20024;-71
2023/07/31 00:39:23;;;;;;;5.60;3.85;;;18.50;99.90;;;;;;2091695;28;20050;-72
2023/07/31 00:40:23;;;;;;;8.25;4.10;;;18.50;99.90;;;;;;2092784;28;20036;-72
2023/07/31 00:41:24;;;;;;;11.52;4.47;;;18.40;99.90;;;;;;2091000;28;20518;-71
2023/07/31 00:42:25;;;;;;;8.80;4.22;;;18.50;99.90;;;;;;2092780;28;20025;-71
2023/07/31 00:43:25;;;;;;;5.07;3.92;;;18.40;99.90;;;;;;2092715;28;20044;-71
2023/07/31 00:44:26;;;;;;;7.32;3.80;;;18.50;99.90;;;;;;2091381;28;20146;-72
2023/07/31 00:45:28;;;;;;;7.95;3.92;;;18.40;99.90;;;;;;2092125;28;20064;-71
2023/07/31 00:46:29;;;;;;;7.03;4.13;;;18.40;99.90;;;;;;2092459;28;20025;-71
2023/07/31 00:47:29;;;;;;;8.20;4.43;;;18.40;99.90;;;;;;2092046;28;20071;-71
2023/07/31 00:48:32;;;;;;;8.82;4.95;;;18.40;99.90;;;;;;2090347;28;20029;-72
2023/07/31 00:49:33;;;;;;;7.82;4.22;;;18.40;99.90;;;;;;2092424;28;20032;-71
2023/07/31 00:50:35;;;;;;;8.65;4.47;;;18.40;99.90;;;;;;2089103;28;20017;-71
2023/07/31 00:51:35;;;;;;;9.55;4.30;;;18.40;99.90;;;;;;2091605;28;20025;-71
2023/07/31 00:52:37;;;;;;;8.02;4.85;;;18.40;99.90;;;;;;2091415;28;20020;-72
2023/07/31 00:53:38;;;;;;;8.23;5.05;;;18.40;99.90;;;;;;2092876;28;20182;-72
2023/07/31 00:54:39;;;;;;;7.35;4.68;;;18.40;99.90;;;;;;2092561;28;20104;-71
2023/07/31 00:55:40;;;;;;;8.07;5.20;;;18.40;99.90;;;;;;2090506;28;20028;-72
2023/07/31 00:56:41;;;;;;;9.20;5.15;;;18.40;99.90;;;;;;2091254;28;20032;-71
2023/07/31 00:57:42;;;;;;;9.85;5.40;;;18.40;99.90;;;;;;2094428;28;20028;-72
2023/07/31 00:58:43;;;;;;;7.70;5.60;;;18.40;99.90;;;;;;2094740;28;20055;-72
2023/07/31 00:59:43;;;;;;;9.07;5.40;;;18.40;99.90;;;;;;2093698;28;20024;-72
2023/07/31 01:00:44;;;;;;;10.10;5.90;;;18.40;99.90;;;;;;2091381;28;20017;-71
2023/07/31 01:01:45;;;;;;;10.82;5.95;;;18.40;99.90;;;;;;2091809;28;20024;-71
2023/07/31 01:02:47;;;;;;;8.20;5.97;;;18.40;99.90;;;;;;2093209;28;20035;-71
2023/07/31 01:03:51;;;;;;;9.13;5.63;;;18.40;99.90;;;;;;2092276;28;20050;-71
2023/07/31 01:04:52;;;;;;;9.38;5.85;;;18.40;99.90;;;;;;2092419;28;20032;-71
2023/07/31 01:06:26;;;;;;;11.45;6.07;;;18.40;99.90;;;;;;2090959;28;20419;-71
2023/07/31 01:07:59;;;;;;;11.70;6.15;;;18.40;99.90;;;;;;2089605;28;20032;-71
2023/07/31 01:09:06;;;;;;;11.00;6.13;;;18.40;99.90;;;;;;2092274;28;20423;-71
2023/07/31 01:10:21;;;;;;;10.48;5.97;;;18.40;99.90;;;;;;2093462;28;20024;-71
2023/07/31 01:11:34;;;;;;;8.77;6.18;;;18.40;99.90;;;;;;2091401;28;20048;-71
2023/07/31 01:12:37;;;;;;;10.90;5.50;;;18.30;99.90;;;;;;2092452;28;20029;-71
2023/07/31 01:13:38;;;;;;;8.98;5.45;;;18.30;99.90;;;;;;2089904;28;20029;-71
2023/07/31 01:14:38;;;;;;;13.10;6.28;;;18.40;99.90;;;;;;2092576;28;20023;-71
2023/07/31 01:15:39;;;;;;;8.25;4.90;;;18.30;99.90;;;;;;2092551;28;20043;-71
2023/07/31 01:16:40;;;;;;;14.25;5.38;;;18.30;99.90;;;;;;2092144;28;20032;-71
2023/07/31 01:17:42;;;;;;;12.20;5.75;;;18.30;99.90;;;;;;2091368;28;20091;-71
2023/07/31 01:18:42;;;;;;;9.50;5.20;;;18.40;99.90;;;;;;2091104;28;20052;-71
2023/07/31 01:19:44;;;;;;;9.02;5.00;;;18.40;99.90;;;;;;2092125;28;20550;-71
2023/07/31 01:20:51;;;;;;;11.68;4.60;;;18.30;99.90;;;;;;2090193;28;20028;-71
2023/07/31 01:22:15;;;;;;;10.55;5.25;;;18.40;99.90;;;;;;2091032;28;20032;-71
2023/07/31 01:23:45;;;;;;;8.90;5.00;;;18.30;99.90;;;;;;2090920;28;20108;-71
2023/07/31 01:25:12;;;;;;;13.87;5.73;;;18.30;99.90;;;;;;2091775;28;20076;-71
2023/07/31 01:26:20;;;;;;;10.00;5.22;;;18.30;99.90;;;;;;2090186;28;20021;-71
2023/07/31 01:27:30;;;;;;;12.30;4.93;;;18.30;99.90;;;;;;2091677;28;20031;-71
2023/07/31 01:28:59;;;;;;;12.98;5.93;;;18.30;99.90;;;;;;2092266;28;20055;-71
2023/07/31 01:30:16;;;;;;;14.27;5.65;;;18.30;99.90;;;;;;2089368;28;20060;-71
2023/07/31 01:31:22;;;;;;;8.75;4.95;;;18.30;99.90;;;;;;2092665;28;20017;-72
2023/07/31 01:32:23;;;;;;;11.57;5.40;;;18.30;99.90;;;;;;2091535;28;20434;-72
2023/07/31 01:33:24;;;;;;;8.60;5.55;;;18.30;99.90;;;;;;2092290;28;20021;-71
2023/07/31 01:34:27;;;;;;;9.35;4.97;;;18.30;99.90;;;;;;2092623;28;20025;-71
2023/07/31 01:35:28;;;;;;;11.73;5.90;;;18.30;99.90;;;;;;2091741;28;20080;-71
2023/07/31 01:36:30;;;;;;;11.68;5.72;;;18.30;99.90;;;;;;2091522;28;20033;-71
2023/07/31 01:37:31;;;;;;;10.73;5.13;;;18.40;99.90;;;;;;2094428;28;20052;-72
2023/07/31 01:38:32;;;;;;;9.60;5.53;;;18.30;99.90;;;;;;2093775;28;20066;-71
2023/07/31 01:39:32;;;;;;;10.23;4.90;;;18.40;99.90;;;;;;2090919;28;20110;-72
2023/07/31 01:40:33;;;;;;;14.05;6.00;;;18.30;99.90;;;;;;2090288;28;20424;-72
2023/07/31 01:41:33;;;;;;;13.45;5.63;;;18.30;99.90;;;;;;2091808;28;20104;-71
2023/07/31 01:42:34;;;;;;;12.70;5.70;;;18.40;99.90;;;;;;2094395;28;20039;-71
2023/07/31 01:43:34;;;;;;;9.10;4.63;;;18.40;99.90;;;;;;2094100;28;20021;-71
2023/07/31 01:44:35;;;;;;;10.05;5.25;;;18.30;99.90;;;;;;2093422;28;20437;-71
2023/07/31 01:45:35;;;;;;;8.55;5.10;;;18.40;99.90;;;;;;2091754;28;20013;-72
2023/07/31 01:46:36;;;;;;;12.98;5.53;;;18.40;99.90;;;;;;2090926;28;20026;-72
2023/07/31 01:47:36;;;;;;;14.60;5.28;;;18.40;99.90;;;;;;2090321;28;20074;-71
2023/07/31 01:48:37;;;;;;;13.60;5.35;;;18.40;99.90;;;;;;2090938;28;20037;-71
2023/07/31 01:49:37;;;;;;;9.68;5.35;;;18.40;99.90;;;;;;2091701;28;20553;-71
2023/07/31 01:50:38;;;;;;;11.07;5.00;;;18.40;99.90;;;;;;2092134;28;20091;-72
2023/07/31 01:51:38;;;;;;;11.63;5.47;;;18.40;99.90;;;;;;2091707;28;20020;-72
2023/07/31 01:52:39;;;;;;;7.78;4.68;;;18.40;99.90;;;;;;2089688;28;20365;-72
2023/07/31 01:53:40;;;;;;;9.60;5.00;;;18.40;99.90;;;;;;2093184;28;20044;-71
2023/07/31 01:54:40;;;;;;;8.95;4.78;;;18.40;99.90;;;;;;2092244;28;20033;-72
2023/07/31 01:55:41;;;;;;;14.45;4.47;;;18.40;99.90;;;;;;2090034;28;20469;-72
2023/07/31 01:56:41;;;;;;;11.57;5.00;;;18.40;99.90;;;;;;2092398;28;20028;-72
2023/07/31 01:57:42;;;;;;;11.18;4.78;;;18.40;99.90;;;;;;2091110;28;20020;-71
2023/07/31 01:58:42;;;;;;;10.32;4.43;;;18.40;99.90;;;;;;2091301;28;20365;-71
2023/07/31 01:59:43;;;;;;;11.18;5.22;;;18.40;99.90;;;;;;2090990;28;20755;-71
2023/07/31 02:00:43;;;;;;;10.20;4.75;;;18.40;99.90;;;;;;2090007;28;20035;-71
2023/07/31 02:01:44;;;;;;;16.35;6.05;;;18.40;99.90;;;;;;2091165;28;20124;-72
2023/07/31 02:02:44;;;;;;;11.90;5.00;;;18.40;99.90;;;;;;2090805;28;20028;-72
2023/07/31 02:03:45;;;;;;;10.38;4.82;;;18.40;99.90;;;;;;2091937;28;20047;-72
2023/07/31 02:04:45;;;;;;;11.40;5.28;;;18.40;99.90;;;;;;2091816;28;20090;-72
2023/07/31 02:05:48;;;;;;;8.93;4.35;;;18.40;99.90;;;;;;2091491;28;20037;-72
2023/07/31 02:06:48;;;;;;;8.75;4.63;;;18.40;99.90;;;;;;2093202;28;20024;-72
2023/07/31 02:07:49;;;;;;;11.93;4.85;;;18.40;99.90;;;;;;2092891;28;20033;-72
2023/07/31 02:08:49;;;;;;;9.55;5.10;;;18.30;99.90;;;;;;2090746;28;20083;-72
2023/07/31 02:09:50;;;;;;;8.75;4.80;;;18.40;99.90;;;;;;2090645;28;20021;-72
2023/07/31 02:10:51;;;;;;;15.82;5.60;;;18.30;99.90;;;;;;2092550;28;20075;-72
2023/07/31 02:11:52;;;;;;;9.88;5.03;;;18.40;99.90;;;;;;2092380;28;20431;-71
2023/07/31 02:12:52;;;;;;;13.88;4.72;;;18.40;99.90;;;;;;2093862;28;20025;-71
2023/07/31 02:13:53;;;;;;;9.88;4.68;;;18.40;99.90;;;;;;2090952;28;20052;-71
2023/07/31 02:14:53;;;;;;;11.75;4.95;;;18.40;99.90;;;;;;2093965;28;20021;-71
2023/07/31 02:15:54;;;;;;;9.35;4.55;;;18.40;99.90;;;;;;2092401;28;20531;-71
2023/07/31 02:16:55;;;;;;;9.25;4.47;;;18.40;99.90;;;;;;2091792;28;20928;-71
2023/07/31 02:17:55;;;;;;;8.68;4.68;;;18.40;99.90;;;;;;2094918;28;20029;-71
2023/07/31 02:18:56;;;;;;;8.65;4.60;;;18.40;99.90;;;;;;2094792;28;20105;-72
2023/07/31 02:19:56;;;;;;;12.32;4.65;;;18.40;99.90;;;;;;2093786;28;20477;-72
2023/07/31 02:20:57;;;;;;;8.18;4.70;;;18.40;99.90;;;;;;2093391;28;20029;-72
2023/07/31 02:21:57;;;;;;;9.55;4.78;;;18.40;99.90;;;;;;2092530;28;20033;-72
2023/07/31 02:22:58;;;;;;;9.13;4.97;;;18.40;99.90;;;;;;2092316;28;20025;-72
2023/07/31 02:23:59;;;;;;;8.43;4.90;;;18.40;99.90;;;;;;2091237;28;20037;-72
2023/07/31 02:24:59;;;;;;;9.70;4.68;;;18.40;99.90;;;;;;2092323;28;20500;-72
2023/07/31 02:26:00;;;;;;;12.68;4.85;;;18.40;99.90;;;;;;2093789;28;20377;-71
2023/07/31 02:27:00;;;;;;;10.15;4.47;;;18.40;99.90;;;;;;2091699;28;20116;-72
2023/07/31 02:28:01;;;;;;;11.85;5.20;;;18.40;99.90;;;;;;2090801;28;20033;-72
2023/07/31 02:29:01;;;;;;;9.77;4.88;;;18.40;99.90;;;;;;2092719;28;20523;-71
2023/07/31 02:30:02;;;;;;;11.27;4.55;;;18.40;99.90;;;;;;2092067;28;20091;-71
2023/07/31 02:31:02;;;;;;;9.18;4.80;;;18.40;99.90;;;;;;2093789;28;20016;-71
2023/07/31 02:32:03;;;;;;;6.90;4.50;;;18.40;99.90;;;;;;2092864;28;20104;-71
2023/07/31 02:33:05;;;;;;;8.82;4.30;;;18.40;99.90;;;;;;2092558;28;20032;-71
2023/07/31 02:34:06;;;;;;;9.63;4.85;;;18.40;99.90;;;;;;2093057;28;20476;-71
2023/07/31 02:35:07;;;;;;;11.98;4.90;;;18.40;99.90;;;;;;2092387;28;20381;-71
2023/07/31 02:36:07;;;;;;;11.25;5.07;;;18.30;99.90;;;;;;2094691;28;20486;-71
2023/07/31 02:37:08;;;;;;;7.82;4.32;;;18.40;99.90;;;;;;2094851;28;20052;-71
2023/07/31 02:38:08;;;;;;;9.32;4.90;;;18.40;99.90;;;;;;2092565;28;20021;-71
2023/07/31 02:39:09;;;;;;;12.05;4.72;;;18.40;99.90;;;;;;2090753;28;20511;-71
2023/07/31 02:40:10;;;;;;;8.93;4.82;;;18.40;99.90;;;;;;2092491;28;20021;-71
2023/07/31 02:41:10;;;;;;;11.90;4.70;;;18.40;99.90;;;;;;2092421;28;20096;-72
2023/07/31 02:42:12;;;;;;;13.98;5.38;;;18.40;99.90;;;;;;2091986;28;20024;-71
2023/07/31 02:43:13;;;;;;;8.52;4.63;;;18.40;99.90;;;;;;2092688;28;20464;-72
2023/07/31 02:44:14;;;;;;;12.93;5.38;;;18.40;99.90;;;;;;2092864;28;20433;-72
2023/07/31 02:45:14;;;;;;;10.80;4.65;;;18.40;99.90;;;;;;2091734;28;20016;-72
2023/07/31 02:46:15;;;;;;;10.40;4.43;;;18.40;99.90;;;;;;2093626;28;20028;-71
2023/07/31 02:47:15;;;;;;;9.35;4.65;;;18.40;99.90;;;;;;2092345;28;20025;-71
2023/07/31 02:48:16;;;;;;;9.77;4.93;;;18.40;99.90;;;;;;2093111;28;20029;-71
2023/07/31 02:49:16;;;;;;;9.43;4.13;;;18.40;99.90;;;;;;2092931;28;20024;-71
2023/07/31 02:50:17;;;;;;;16.77;4.65;;;18.40;99.90;;;;;;2090526;28;20057;-71
2023/07/31 02:51:18;;;;;;;8.57;4.57;;;18.40;99.90;;;;;;2093468;28;20710;-71
2023/07/31 02:52:18;;;;;;;11.38;4.70;;;18.40;99.90;;;;;;2091944;28;20027;-72
2023/07/31 02:53:19;;;;;;;9.23;4.05;;;18.40;99.90;;;;;;2091458;28;20032;-71
2023/07/31 02:54:21;;;;;;;11.85;4.72;;;18.40;99.90;;;;;;2094903;28;20028;-71
2023/07/31 02:55:22;;;;;;;7.78;4.25;;;18.40;99.90;;;;;;2089192;28;20062;-71
2023/07/31 02:56:22;;;;;;;8.48;4.63;;;18.40;99.90;;;;;;2091376;28;20016;-71
2023/07/31 02:57:23;;;;;;;7.57;4.80;;;18.40;99.90;;;;;;2092670;28;20029;-71
2023/07/31 02:58:23;;;;;;;8.20;4.45;;;18.40;99.90;;;;;;2092500;28;20031;-71
2023/07/31 02:59:25;;;;;;;9.77;4.72;;;18.40;99.90;;;;;;2092612;28;20463;-71
2023/07/31 03:00:25;;;;;;;11.90;5.55;;;18.40;99.90;;;;;;2092148;28;20025;-71
2023/07/31 03:01:26;;;;;;;7.75;4.68;;;18.30;99.90;;;;;;2090956;28;20051;-72
2023/07/31 03:02:26;;;;;;;10.82;5.20;;;18.40;99.90;;;;;;2092310;28;20462;-71
2023/07/31 03:03:27;;;;;;;12.20;5.70;;;18.40;99.90;;;;;;2090610;28;20039;-71
2023/07/31 03:04:27;;;;;;;13.05;4.95;;;18.30;99.90;;;;;;2093837;28;20549;-71
2023/07/31 03:05:28;;;;;;;8.20;4.72;;;18.30;99.90;;;;;;2092467;28;20028;-71
2023/07/31 03:06:28;;;;;;;10.10;4.95;;;18.30;99.90;;;;;;2091392;28;20040;-72
2023/07/31 03:07:30;;;;;;;13.52;5.22;;;18.30;99.90;;;;;;2092722;28;20064;-71
2023/07/31 03:08:30;;;;;;;11.55;5.03;;;18.40;99.90;;;;;;2092910;28;20070;-71
2023/07/31 03:09:31;;;;;;;11.05;4.82;;;18.30;99.90;;;;;;2092590;28;20037;-71
2023/07/31 03:10:31;;;;;;;13.52;4.85;;;18.30;99.90;;;;;;2091644;28;20032;-71
2023/07/31 03:11:32;;;;;;;11.23;4.90;;;18.30;99.90;;;;;;2092729;28;20025;-72
2023/07/31 03:12:33;;;;;;;13.15;5.20;;;18.30;99.90;;;;;;2091986;28;20024;-71
2023/07/31 03:13:33;;;;;;;10.70;4.47;;;18.30;99.90;;;;;;2090719;28;20017;-71
2023/07/31 03:14:34;;;;;;;10.43;4.65;;;18.40;99.90;;;;;;2091667;28;20113;-71
2023/07/31 03:15:34;;;;;;;10.07;4.90;;;18.30;99.90;;;;;;2092550;28;20016;-71
2023/07/31 03:16:35;;;;;;;14.45;5.22;;;18.40;99.90;;;;;;2092335;28;20388;-71
2023/07/31 03:17:35;;;;;;;14.88;5.60;;;18.40;99.90;;;;;;2091448;28;20031;-71
2023/07/31 03:18:36;;;;;;;12.05;5.03;;;18.30;99.90;;;;;;2092319;28;20071;-71
2023/07/31 03:19:36;;;;;;;16.90;5.35;;;18.30;99.90;;;;;;2090372;28;20017;-71
2023/07/31 03:20:37;;;;;;;13.77;5.57;;;18.30;99.90;;;;;;2094131;28;20017;-71
2023/07/31 03:21:37;;;;;;;11.55;5.35;;;18.30;99.90;;;;;;2092230;28;20020;-71
2023/07/31 03:22:38;;;;;;;15.27;5.18;;;18.30;99.90;;;;;;2091798;28;20037;-71
2023/07/31 03:23:38;;;;;;;11.23;5.20;;;18.30;99.90;;;;;;2093065;28;20510;-71
2023/07/31 03:24:39;;;;;;;12.18;5.18;;;18.30;99.90;;;;;;2092316;28;20013;-71
2023/07/31 03:26:05;;;;;;;10.70;5.13;;;18.30;99.90;;;;;;2092852;28;20125;-71
2023/07/31 03:27:06;;;;;;;10.20;5.03;;;18.30;99.90;;;;;;2094435;28;20112;-71
2023/07/31 03:28:06;;;;;;;11.00;5.13;;;18.30;99.90;;;;;;2092275;28;20023;-71
2023/07/31 03:29:08;;;;;;;12.98;5.22;;;18.30;99.90;;;;;;2093228;28;20025;-71
2023/07/31 03:30:09;;;;;;;11.57;5.07;;;18.30;99.90;;;;;;2093998;28;20017;-71
2023/07/31 03:31:11;;;;;;;9.68;5.00;;;18.30;99.90;;;;;;2092637;28;20049;-71
2023/07/31 03:32:11;;;;;;;8.98;4.68;;;18.30;99.90;;;;;;2093406;28;20060;-71
2023/07/31 03:33:12;;;;;;;10.43;4.88;;;18.30;99.90;;;;;;2092868;28;20496;-71
2023/07/31 03:34:12;;;;;;;9.57;4.93;;;18.30;99.90;;;;;;2093642;28;20020;-71
2023/07/31 03:35:13;;;;;;;11.75;5.68;;;18.30;99.90;;;;;;2093731;28;20013;-71
2023/07/31 03:36:13;;;;;;;8.93;4.93;;;18.30;99.90;;;;;;2092402;28;20028;-71
2023/07/31 03:37:14;;;;;;;13.30;5.72;;;18.30;99.90;;;;;;2092010;28;20020;-71
2023/07/31 03:38:14;;;;;;;12.13;5.32;;;18.30;99.90;;;;;;2090912;28;20032;-71
2023/07/31 03:39:15;;;;;;;12.13;4.80;;;18.30;99.90;;;;;;2093699;28;20035;-71
2023/07/31 03:40:15;;;;;;;9.90;5.13;;;18.30;99.90;;;;;;2091790;28;20396;-71
2023/07/31 03:41:16;;;;;;;9.90;5.25;;;18.30;99.90;;;;;;2092694;28;20016;-71
2023/07/31 03:42:16;;;;;;;11.30;4.93;;;18.30;99.90;;;;;;2093337;28;20032;-71
2023/07/31 03:43:17;;;;;;;12.02;4.93;;;18.40;99.90;;;;;;2093709;28;20029;-71
2023/07/31 03:44:18;;;;;;;16.92;5.50;;;18.40;99.90;;;;;;2091451;28;20026;-71
2023/07/31 03:45:18;;;;;;;12.23;5.38;;;18.40;99.90;;;;;;2090289;28;20074;-71
2023/07/31 03:46:19;;;;;;;9.80;4.82;;;18.40;99.90;;;;;;2093893;28;20029;-71
2023/07/31 03:47:19;;;;;;;15.55;5.25;;;18.40;99.90;;;;;;2092942;28;20480;-71
2023/07/31 03:48:20;;;;;;;12.93;4.95;;;18.40;99.90;;;;;;2093038;28;20020;-71
2023/07/31 03:49:21;;;;;;;13.40;5.50;;;18.40;99.90;;;;;;2090946;28;20090;-71
2023/07/31 03:50:21;;;;;;;8.80;4.47;;;18.40;99.90;;;;;;2092113;28;20029;-71
2023/07/31 03:51:22;;;;;;;11.18;4.85;;;18.40;99.90;;;;;;2091846;28;20018;-71
2023/07/31 03:52:22;;;;;;;15.00;5.55;;;18.40;99.90;;;;;;2091781;28;20039;-71
2023/07/31 03:53:23;;;;;;;12.55;5.05;;;18.40;99.90;;;;;;2091399;28;20067;-71
2023/07/31 03:54:23;;;;;;;13.70;5.03;;;18.40;99.90;;;;;;2090811;28;20032;-71
2023/07/31 03:55:24;;;;;;;12.02;4.93;;;18.40;99.90;;;;;;2090865;28;20023;-71
2023/07/31 03:56:24;;;;;;;11.70;5.25;;;18.40;99.90;;;;;;2091936;28;20013;-71
2023/07/31 03:57:25;;;;;;;14.60;5.35;;;18.40;99.90;;;;;;2090556;28;20032;-71
2023/07/31 03:58:25;;;;;;;11.23;4.68;;;18.40;99.90;;;;;;2093251;28;20016;-71
2023/07/31 03:59:26;;;;;;;8.70;4.63;;;18.40;99.90;;;;;;2090490;28;20017;-71
2023/07/31 04:00:27;;;;;;;12.68;5.15;;;18.40;99.90;;;;;;2090758;28;20532;-71
2023/07/31 04:01:27;;;;;;;13.25;4.90;;;18.30;99.90;;;;;;2092036;28;20025;-71
2023/07/31 04:02:28;;;;;;;8.63;4.95;;;18.40;99.90;;;;;;2092679;28;20074;-71
2023/07/31 04:03:29;;;;;;;13.63;4.88;;;18.40;99.90;;;;;;2091590;28;20159;-71
2023/07/31 04:04:30;;;;;;;7.50;4.38;;;18.40;99.90;;;;;;2094747;28;20070;-71
2023/07/31 04:05:32;;;;;;;13.18;5.13;;;18.40;99.90;;;;;;2091892;28;20106;-71
2023/07/31 04:06:32;;;;;;;9.23;4.55;;;18.40;99.90;;;;;;2093992;28;20025;-71
2023/07/31 04:07:33;;;;;;;10.07;4.70;;;18.40;99.90;;;;;;2092455;28;20025;-71
2023/07/31 04:08:33;;;;;;;9.80;4.32;;;18.40;99.90;;;;;;2093606;28;20017;-71
2023/07/31 04:09:34;;;;;;;10.18;4.88;;;18.40;99.90;;;;;;2092880;28;20020;-71
2023/07/31 04:10:34;;;;;;;11.07;4.55;;;18.40;99.90;;;;;;2090521;28;20020;-71
2023/07/31 04:11:35;;;;;;;8.48;4.88;;;18.40;99.90;;;;;;2090924;28;20024;-71
2023/07/31 04:12:35;;;;;;;10.48;4.55;;;18.40;99.90;;;;;;2092228;28;20044;-71
2023/07/31 04:13:36;;;;;;;6.88;4.35;;;18.40;99.90;;;;;;2092032;28;20070;-71
2023/07/31 04:14:37;;;;;;;10.10;4.80;;;18.40;99.90;;;;;;2093311;28;20025;-71
2023/07/31 04:15:37;;;;;;;10.80;5.07;;;18.40;99.90;;;;;;2091237;28;20801;-71
2023/07/31 04:16:38;;;;;;;10.43;4.65;;;18.40;99.90;;;;;;2090907;28;20056;-71
2023/07/31 04:17:38;;;;;;;9.85;5.00;;;18.40;99.90;;;;;;2091100;28;20017;-71
2023/07/31 04:18:39;;;;;;;9.70;4.57;;;18.50;99.90;;;;;;2092222;28;20017;-71
2023/07/31 04:19:39;;;;;;;9.38;4.80;;;18.40;99.90;;;;;;2090653;28;20028;-71
2023/07/31 04:20:40;;;;;;;11.30;5.03;;;18.40;99.90;;;;;;2090425;28;20063;-71
2023/07/31 04:21:40;;;;;;;12.15;4.82;;;18.40;99.90;;;;;;2089483;28;20020;-71
2023/07/31 04:22:41;;;;;;;9.13;4.45;;;18.50;99.90;;;;;;2092451;28;20039;-71
2023/07/31 04:23:41;;;;;;;12.65;5.05;;;18.50;99.90;;;;;;2091970;28;20135;-71
2023/07/31 04:24:42;;;;;;;8.85;4.90;;;18.40;99.90;;;;;;2092654;28;20051;-71
2023/07/31 04:25:43;;;;;;;9.30;4.57;;;18.50;99.90;;;;;;2092776;28;20488;-71
2023/07/31 04:26:44;;;;;;;13.98;5.07;;;18.50;99.90;;;;;;2093598;28;20411;-71
2023/07/31 04:27:44;;;;;;;12.13;5.13;;;18.50;99.90;;;;;;2090661;28;20123;-71
2023/07/31 04:28:45;;;;;;;9.15;5.28;;;18.40;99.90;;;;;;2092644;28;20086;-71
2023/07/31 04:29:47;;;;;;;8.98;4.80;;;18.50;99.90;;;;;;2090418;28;20037;-71
2023/07/31 04:30:48;;;;;;;12.88;5.90;;;18.50;99.90;;;;;;2092142;28;20028;-71
2023/07/31 04:31:48;;;;;;;9.80;5.43;;;18.50;99.90;;;;;;2094179;28;20052;-71
2023/07/31 04:32:49;;;;;;;10.73;5.13;;;18.50;99.90;;;;;;2090690;28;20021;-71
2023/07/31 04:33:49;;;;;;;9.20;4.75;;;18.50;99.90;;;;;;2093329;28;20121;-71
2023/07/31 04:34:50;;;;;;;6.22;4.03;;;18.50;99.90;;;;;;2091596;28;20472;-71
2023/07/31 04:35:52;;;;;;;9.85;5.00;;;18.50;99.90;;;;;;2093497;28;20029;-71
2023/07/31 04:36:52;;;;;;;7.20;4.85;;;18.50;99.90;;;;;;2091731;28;20432;-71
2023/07/31 04:37:53;;;;;;;11.15;4.65;;;18.50;99.90;;;;;;2091722;28;20052;-71
2023/07/31 04:38:54;;;;;;;14.73;5.20;;;18.50;99.90;;;;;;2091460;28;20037;-71
2023/07/31 04:39:54;;;;;;;10.27;4.90;;;18.50;99.90;;;;;;2090803;28;20583;-71
2023/07/31 04:40:55;;;;;;;10.38;4.80;;;18.60;99.90;;;;;;2092625;28;20052;-71
2023/07/31 04:41:55;;;;;;;9.75;5.05;;;18.60;99.90;;;;;;2092803;28;20028;-71
2023/07/31 04:42:56;;;;;;;10.20;4.50;;;18.60;99.90;;;;;;2093296;28;20028;-71
2023/07/31 04:43:56;;;;;;;14.32;4.47;;;18.60;99.90;;;;;;2092402;28;20209;-71
2023/07/31 04:44:57;;;;;;;10.20;4.45;;;18.60;99.90;;;;;;2091657;28;20028;-71
2023/07/31 04:45:58;;;;;;;8.40;4.35;;;18.60;99.90;;;;;;2091824;28;20039;-71
2023/07/31 04:46:58;;;;;;;17.20;5.03;;;18.60;99.90;;;;;;2094649;28;20579;-71
2023/07/31 04:47:59;;;;;;;8.32;4.97;;;18.60;99.90;;;;;;2095645;28;20028;-71
2023/07/31 04:49:00;;;;;;;8.90;4.90;;;18.60;99.90;;;;;;2093176;28;20103;-71
2023/07/31 04:50:00;;;;;;;12.57;4.93;;;18.60;99.90;;;;;;2090620;28;20043;-71
2023/07/31 04:51:01;;;;;;;10.60;5.10;;;18.70;99.90;;;;;;2090608;28;20027;-71
2023/07/31 04:52:02;;;;;;;6.43;4.90;;;18.70;99.90;;;;;;2094664;28;20070;-71
2023/07/31 04:53:02;;;;;;;8.85;4.65;;;18.70;99.90;;;;;;2095611;28;20058;-71
2023/07/31 04:54:03;;;;;;;11.55;4.97;;;18.70;99.90;;;;;;2090296;28;20025;-71
2023/07/31 04:55:04;;;;;;;10.48;4.78;;;18.70;99.90;;;;;;2091893;28;20495;-71
2023/07/31 04:56:04;;;;;;;10.20;4.50;;;18.70;99.90;;;;;;2089836;28;20492;-71
2023/07/31 04:57:06;;;;;;;8.02;4.22;;;18.70;99.90;;;;;;2091942;28;20074;-71
2023/07/31 04:58:07;;;;;;;9.38;5.38;;;18.70;99.90;;;;;;2092303;28;20020;-71
2023/07/31 04:59:07;;;;;;;11.60;4.82;;;18.70;99.90;;;;;;2089703;28;20119;-71
2023/07/31 05:00:08;;;;;;;10.70;4.97;;;18.70;99.90;;;;;;2091053;28;20040;-71
2023/07/31 05:01:09;;;;;;;10.32;4.55;;;18.80;99.90;;;;;;2092881;28;20060;-71
2023/07/31 05:02:13;;;;;;;10.35;4.65;;;18.70;99.90;;;;;;2089826;28;20113;-71
2023/07/31 05:03:13;;;;;;;9.73;5.38;;;18.70;99.90;;;;;;2092684;28;20025;-71
2023/07/31 05:04:15;;;;;;;7.90;4.10;;;18.70;99.90;;;;;;2091752;28;20056;-71
2023/07/31 05:05:15;;;;;;;11.10;5.03;;;18.70;99.90;;;;;;2090846;28;20033;-71
2023/07/31 05:06:16;;;;;;;7.45;4.80;;;18.70;99.90;;;;;;2092304;28;20144;-71
2023/07/31 05:07:17;;;;;;;10.25;5.30;;;18.70;99.90;;;;;;2093581;28;20147;-71
2023/07/31 05:08:17;;;;;;;8.10;4.85;;;18.70;99.90;;;;;;2091943;28;20075;-71
2023/07/31 05:09:18;;;;;;;9.75;5.30;;;18.70;99.90;;;;;;2091088;28;20040;-71
2023/07/31 05:10:18;;;;;;;9.63;5.00;;;18.80;99.90;;;;;;2090370;28;20021;-71
2023/07/31 05:11:19;;;;;;;11.20;5.25;;;18.70;99.90;;;;;;2091456;28;20025;-71
2023/07/31 05:12:19;;;;;;;7.60;4.97;;;18.70;99.90;;;;;;2093358;28;20066;-71
2023/07/31 05:13:20;;;;;;;9.15;4.63;;;18.80;99.90;;;;;;2091807;28;20468;-71
2023/07/31 05:14:21;;;;;;;9.82;4.85;;;18.70;99.90;;;;;;2090289;28;20025;-71
2023/07/31 05:15:21;;;;;;;9.50;4.68;;;18.80;99.90;;;;;;2090445;28;20021;-71
2023/07/31 05:16:22;;;;;;;11.82;4.72;;;18.70;99.90;;;;;;2090340;28;20025;-71
2023/07/31 05:17:22;;;;;;;10.10;5.32;;;18.80;99.90;;;;;;2091063;28;20503;-72
2023/07/31 05:18:23;;;;;;;7.13;4.40;;;18.80;99.90;;;;;;2089700;28;20102;-71
2023/07/31 05:19:24;;;;;;;9.20;4.70;;;18.80;99.90;;;;;;2091042;28;20086;-71